Aviation Digital Data Service (ADDS)

Output produced by TAFs form (2213 UTC 30 August 2014)
found at http://aviationweather.gov/adds/tafs/
 
KLND 302105Z 3021/3118 23024G34KT P6SM VCTS SCT070CB BKN150 
     FM310100 25011KT P6SM VCSH SCT060 BKN150 
     FM310800 VRB07KT P6SM VCSH OVC060 
     FM311400 VRB06KT P6SM FEW060